Terminal Aerodrome Forecast
Issued by NWS Northern Indiana

Home | Current Version | Previous Version | Graphics & Text | Print | Product List | Glossary On
Versions: 1 2 3 4 5 6 7 8 9 10 11 12 13 14 15 16 17
000
FTUS43 KIWX 280521
TAFFWA
TAF
KFWA 280521Z 2806/2906 07012KT 5SM -SHRA OVC025
      TEMPO 2807/2811 4SM TSRA OVC015CB
     FM281100 06013KT P6SM OVC025=

USA.gov is the U.S. government's official web portal to all federal, state and local government web resources and services.